Time;durP1;ratioP1;P1;durP2;ratioP2;P2;SDS_P1;SDS_P2;PMS_P1;PMS_P2;Temp;Humidity;BMP_temperature;BMP_pressure;BME280_temperature;BME280_humidity;BME280_pressure;Samples;Min_cycle;Max_cycle;Signal;HPM_P1;HPM_P2
2022/10/25 00:00:49;;;;;;;84.07;39.90;;;;;;;;;;4956430;28;20298;-48
2022/10/25 00:03:28;;;;;;;203.00;68.45;;;;;;;;;;4956438;29;20218;-48
2022/10/25 00:05:55;;;;;;;136.38;51.13;;;;;;;;;;4956520;29;20235;-48
2022/10/25 00:08:22;;;;;;;140.77;55.17;;;;;;;;;;4956164;29;20207;-48
2022/10/25 00:10:49;;;;;;;59.92;35.30;;;;;;;;;;4956367;29;20294;-48
2022/10/25 00:13:16;;;;;;;66.32;36.45;;;;;;;;;;4956288;29;20207;-48
2022/10/25 00:15:43;;;;;;;61.28;36.88;;;;;;;;;;4956409;29;20214;-47
2022/10/25 00:18:10;;;;;;;68.50;42.05;;;;;;;;;;4958551;28;20235;-48
2022/10/25 00:20:37;;;;;;;64.07;36.08;;;;;;;;;;4959771;28;20635;-48
2022/10/25 00:23:04;;;;;;;68.57;35.78;;;;;;;;;;4959871;29;20211;-48
2022/10/25 00:25:31;;;;;;;62.88;35.60;;;;;;;;;;4960314;29;20210;-48
2022/10/25 00:27:58;;;;;;;93.70;41.72;;;;;;;;;;4960181;29;20262;-48
2022/10/25 00:30:25;;;;;;;63.72;35.67;;;;;;;;;;4959831;29;20191;-49
2022/10/25 00:32:53;;;;;;;67.28;37.25;;;;;;;;;;4959689;29;20631;-48
2022/10/25 00:35:20;;;;;;;61.55;35.40;;;;;;;;;;4959544;28;20593;-48
2022/10/25 00:37:47;;;;;;;61.50;34.13;;;;;;;;;;4959690;28;20243;-48
2022/10/25 00:40:14;;;;;;;54.38;32.72;;;;;;;;;;4959631;29;20207;-48
2022/10/25 00:42:42;;;;;;;50.75;30.80;;;;;;;;;;4959615;29;20211;-48
2022/10/25 00:45:23;;;;;;;57.42;33.78;;;;;;;;;;4959547;29;20294;-48
2022/10/25 00:48:00;;;;;;;51.63;32.88;;;;;;;;;;4959326;29;20219;-48
2022/10/25 00:50:27;;;;;;;50.47;32.10;;;;;;;;;;4958381;29;20635;-48
2022/10/25 00:52:58;;;;;;;51.78;31.83;;;;;;;;;;4959350;28;20235;-47
2022/10/25 00:55:26;;;;;;;58.47;32.05;;;;;;;;;;4959377;28;20213;-48
2022/10/25 00:58:09;;;;;;;57.58;32.13;;;;;;;;;;4959251;29;20235;-51
2022/10/25 01:00:36;;;;;;;54.00;32.42;;;;;;;;;;4959068;29;20206;-48
2022/10/25 01:03:04;;;;;;;51.42;30.55;;;;;;;;;;4959028;28;20662;-49
2022/10/25 01:05:33;;;;;;;51.35;32.78;;;;;;;;;;4959112;29;20238;-48
2022/10/25 01:08:00;;;;;;;54.70;31.55;;;;;;;;;;4958285;29;20239;-48
2022/10/25 01:10:28;;;;;;;51.80;32.50;;;;;;;;;;4958892;28;20623;-48
2022/10/25 01:12:55;;;;;;;56.00;33.63;;;;;;;;;;4959053;29;20211;-48
2022/10/25 01:15:28;;;;;;;53.53;30.90;;;;;;;;;;4959117;29;20213;-49
2022/10/25 01:18:11;;;;;;;53.75;33.90;;;;;;;;;;4958445;29;20251;-48
2022/10/25 01:21:06;;;;;;;52.78;31.08;;;;;;;;;;4957885;29;20199;-48
2022/10/25 01:24:14;;;;;;;52.72;31.05;;;;;;;;;;4958973;28;20214;-48
2022/10/25 01:26:59;;;;;;;51.97;32.70;;;;;;;;;;4958903;28;20230;-48
2022/10/25 01:29:45;;;;;;;51.30;31.08;;;;;;;;;;4956470;28;20619;-48
2022/10/25 01:32:21;;;;;;;54.50;32.85;;;;;;;;;;4958832;28;20274;-48
2022/10/25 01:34:57;;;;;;;50.95;31.10;;;;;;;;;;4959019;28;20207;-49
2022/10/25 01:37:33;;;;;;;53.83;32.20;;;;;;;;;;4957698;29;20222;-48
2022/10/25 01:40:22;;;;;;;57.67;33.25;;;;;;;;;;4959339;28;20191;-47
2022/10/25 01:43:01;;;;;;;56.97;33.50;;;;;;;;;;4958006;29;20211;-48
2022/10/25 01:45:33;;;;;;;58.10;36.30;;;;;;;;;;4957705;29;20222;-48
2022/10/25 01:48:02;;;;;;;56.10;33.17;;;;;;;;;;4957413;29;20627;-48
2022/10/25 01:50:32;;;;;;;72.97;40.38;;;;;;;;;;4958125;28;20693;-48
2022/10/25 01:52:59;;;;;;;58.55;34.35;;;;;;;;;;4957343;29;20269;-48
2022/10/25 01:55:33;;;;;;;60.95;34.63;;;;;;;;;;4958455;28;20206;-48
2022/10/25 01:58:26;;;;;;;57.10;32.65;;;;;;;;;;4958108;28;20237;-48
2022/10/25 02:00:58;;;;;;;54.88;33.65;;;;;;;;;;4958278;28;20274;-49
2022/10/25 02:03:39;;;;;;;57.28;34.40;;;;;;;;;;4958265;29;20294;-48
2022/10/25 02:06:06;;;;;;;56.08;35.05;;;;;;;;;;4958403;28;20207;-48
2022/10/25 02:08:33;;;;;;;57.88;33.33;;;;;;;;;;4958056;28;20290;-48
2022/10/25 02:11:17;;;;;;;59.25;33.65;;;;;;;;;;4957709;29;20207;-48
2022/10/25 02:14:26;;;;;;;54.50;32.17;;;;;;;;;;4957365;29;20196;-48
2022/10/25 02:16:59;;;;;;;53.15;31.73;;;;;;;;;;4902383;29;20223;-49
2022/10/25 02:19:48;;;;;;;56.15;32.97;;;;;;;;;;4918636;29;20216;-49
2022/10/25 02:22:18;;;;;;;59.67;32.35;;;;;;;;;;4918135;29;20208;-48
2022/10/25 02:24:46;;;;;;;61.85;34.20;;;;;;;;;;4917862;29;20676;-48
2022/10/25 02:27:14;;;;;;;56.00;33.97;;;;;;;;;;4917916;29;20212;-47
2022/10/25 02:29:41;;;;;;;53.63;33.63;;;;;;;;;;4917955;29;20284;-48
2022/10/25 02:32:08;;;;;;;57.67;32.15;;;;;;;;;;4917710;29;20660;-48
2022/10/25 02:34:35;;;;;;;58.95;34.28;;;;;;;;;;4917773;29;20221;-48
2022/10/25 02:37:02;;;;;;;57.88;33.95;;;;;;;;;;4917624;29;20225;-48
2022/10/25 02:39:30;;;;;;;61.08;34.55;;;;;;;;;;4917351;29;20205;-48
2022/10/25 02:42:01;;;;;;;63.40;35.42;;;;;;;;;;4918221;29;20212;-49
2022/10/25 02:44:28;;;;;;;57.85;35.53;;;;;;;;;;4917577;29;20644;-53
2022/10/25 02:46:55;;;;;;;56.30;34.10;;;;;;;;;;4917356;29;20211;-50
2022/10/25 02:49:22;;;;;;;60.13;35.17;;;;;;;;;;4917470;29;20212;-48
2022/10/25 02:51:49;;;;;;;62.55;35.22;;;;;;;;;;4917562;29;20205;-49
2022/10/25 02:54:17;;;;;;;57.03;32.70;;;;;;;;;;4951072;29;20199;-48
2022/10/25 02:56:44;;;;;;;55.85;33.92;;;;;;;;;;4957202;28;20204;-48
2022/10/25 02:59:14;;;;;;;59.47;34.85;;;;;;;;;;4956083;29;20207;-48
2022/10/25 03:01:41;;;;;;;55.83;33.17;;;;;;;;;;4957220;29;20555;-49
2022/10/25 03:04:08;;;;;;;63.95;32.92;;;;;;;;;;4956791;29;20296;-47
2022/10/25 03:06:35;;;;;;;61.90;36.10;;;;;;;;;;4957077;28;20714;-48
2022/10/25 03:09:02;;;;;;;61.42;34.92;;;;;;;;;;4956965;29;20231;-48
2022/10/25 03:11:29;;;;;;;77.18;45.85;;;;;;;;;;4956688;29;20278;-48
2022/10/25 03:13:56;;;;;;;87.47;48.97;;;;;;;;;;4957305;29;20526;-48
2022/10/25 03:16:23;;;;;;;85.60;49.58;;;;;;;;;;4957132;29;20211;-48
2022/10/25 03:18:50;;;;;;;65.88;37.13;;;;;;;;;;4956959;28;20532;-48
2022/10/25 03:21:17;;;;;;;58.03;34.30;;;;;;;;;;4957510;28;20694;-48
2022/10/25 03:23:44;;;;;;;61.88;34.88;;;;;;;;;;4956835;28;20204;-47
2022/10/25 03:26:11;;;;;;;61.47;35.33;;;;;;;;;;4956597;29;20211;-48
2022/10/25 03:28:38;;;;;;;66.95;37.35;;;;;;;;;;4956763;28;20219;-48
2022/10/25 03:31:11;;;;;;;61.22;35.13;;;;;;;;;;4956188;28;20547;-48
2022/10/25 03:33:39;;;;;;;61.15;35.30;;;;;;;;;;4955819;29;20626;-48
2022/10/25 03:36:06;;;;;;;59.08;34.67;;;;;;;;;;4956310;28;20219;-47
2022/10/25 03:38:34;;;;;;;58.65;33.97;;;;;;;;;;4955899;28;20682;-49
2022/10/25 03:41:01;;;;;;;56.40;35.30;;;;;;;;;;4956318;28;20225;-48
2022/10/25 03:43:28;;;;;;;61.10;34.65;;;;;;;;;;4923489;29;20606;-48
2022/10/25 03:45:55;;;;;;;58.83;34.28;;;;;;;;;;4956551;29;20210;-49
2022/10/25 03:48:22;;;;;;;60.33;33.95;;;;;;;;;;4956290;29;20239;-49
2022/10/25 03:50:49;;;;;;;62.65;35.40;;;;;;;;;;4956330;28;20204;-49
2022/10/25 03:53:16;;;;;;;62.47;35.28;;;;;;;;;;4959083;28;20505;-50
2022/10/25 03:55:43;;;;;;;58.85;35.30;;;;;;;;;;4960701;29;20286;-48
2022/10/25 03:58:10;;;;;;;58.53;34.80;;;;;;;;;;4959763;28;20223;-53
2022/10/25 04:00:37;;;;;;;60.05;34.83;;;;;;;;;;4960126;28;20207;-49
2022/10/25 04:03:04;;;;;;;59.60;35.25;;;;;;;;;;4953103;28;20569;-49
2022/10/25 04:05:32;;;;;;;57.75;33.90;;;;;;;;;;4959021;28;20250;-48
2022/10/25 04:08:00;;;;;;;54.50;33.83;;;;;;;;;;4940265;29;20242;-48
2022/10/25 04:10:26;;;;;;;56.78;34.80;;;;;;;;;;4940191;29;20259;-53
2022/10/25 04:12:54;;;;;;;55.42;33.80;;;;;;;;;;4942192;29;20223;-48
2022/10/25 04:15:22;;;;;;;55.75;33.78;;;;;;;;;;4959101;28;20278;-47
2022/10/25 04:17:50;;;;;;;58.78;35.97;;;;;;;;;;4958475;28;20235;-48
2022/10/25 04:20:17;;;;;;;63.72;36.03;;;;;;;;;;4959197;28;20318;-48
2022/10/25 04:22:45;;;;;;;60.78;36.25;;;;;;;;;;4958853;28;20517;-48
2022/10/25 04:25:11;;;;;;;66.45;37.08;;;;;;;;;;4958956;28;20234;-48
2022/10/25 04:27:38;;;;;;;64.15;36.45;;;;;;;;;;4958649;28;20290;-48
2022/10/25 04:30:06;;;;;;;57.65;35.22;;;;;;;;;;4959275;28;20682;-47
2022/10/25 04:32:33;;;;;;;60.67;37.55;;;;;;;;;;4958653;28;20215;-48
2022/10/25 04:35:00;;;;;;;66.00;37.97;;;;;;;;;;4958999;28;20223;-48
2022/10/25 04:37:27;;;;;;;72.45;39.67;;;;;;;;;;4958557;28;20235;-47
2022/10/25 04:39:54;;;;;;;72.57;41.13;;;;;;;;;;4958852;28;20302;-48
2022/10/25 04:42:21;;;;;;;72.53;40.75;;;;;;;;;;4958059;28;20228;-48
2022/10/25 04:44:48;;;;;;;72.13;39.78;;;;;;;;;;4940170;29;20220;-48
2022/10/25 04:47:15;;;;;;;76.90;41.95;;;;;;;;;;4956842;29;20246;-48
2022/10/25 04:49:42;;;;;;;88.50;44.03;;;;;;;;;;4957025;28;20315;-49
2022/10/25 04:52:09;;;;;;;82.05;44.28;;;;;;;;;;4958365;29;20219;-49
2022/10/25 04:54:36;;;;;;;89.32;45.55;;;;;;;;;;4957367;28;20231;-49
2022/10/25 04:57:06;;;;;;;86.50;46.30;;;;;;;;;;4957104;28;20226;-51
2022/10/25 04:59:33;;;;;;;80.32;44.45;;;;;;;;;;4956565;29;20239;-47
2022/10/25 05:02:00;;;;;;;84.65;45.55;;;;;;;;;;4957656;29;20310;-49
2022/10/25 05:04:27;;;;;;;86.93;44.13;;;;;;;;;;4957311;28;20235;-47
2022/10/25 05:06:54;;;;;;;91.22;44.55;;;;;;;;;;4958284;28;20223;-46
2022/10/25 05:09:21;;;;;;;83.18;42.00;;;;;;;;;;4957819;28;20712;-46
2022/10/25 05:11:48;;;;;;;79.82;41.67;;;;;;;;;;4958014;29;20662;-48
2022/10/25 05:14:15;;;;;;;83.68;42.65;;;;;;;;;;4957366;28;20286;-46
2022/10/25 05:16:42;;;;;;;82.38;42.47;;;;;;;;;;4957634;29;20694;-46
2022/10/25 05:19:09;;;;;;;76.32;41.30;;;;;;;;;;4957918;29;20239;-46
2022/10/25 05:21:36;;;;;;;78.75;41.13;;;;;;;;;;4958447;29;20239;-46
2022/10/25 05:24:04;;;;;;;83.57;42.47;;;;;;;;;;4958523;29;20219;-47
2022/10/25 05:26:31;;;;;;;73.95;42.10;;;;;;;;;;4958429;29;20212;-46
2022/10/25 05:28:58;;;;;;;75.00;41.45;;;;;;;;;;4958382;29;20207;-47
2022/10/25 05:31:27;;;;;;;72.93;41.80;;;;;;;;;;4958521;29;20208;-47
2022/10/25 05:33:59;;;;;;;77.70;40.47;;;;;;;;;;4958201;29;20206;-47
2022/10/25 05:36:31;;;;;;;72.50;40.33;;;;;;;;;;4958360;29;20218;-48
2022/10/25 05:39:02;;;;;;;69.93;39.50;;;;;;;;;;4957330;29;20224;-47
2022/10/25 05:41:29;;;;;;;72.63;40.83;;;;;;;;;;4958398;28;20200;-47
2022/10/25 05:44:01;;;;;;;67.35;38.78;;;;;;;;;;4958379;29;20196;-47
2022/10/25 05:46:29;;;;;;;76.68;41.58;;;;;;;;;;4958265;28;20638;-47
2022/10/25 05:48:57;;;;;;;72.82;40.13;;;;;;;;;;4958097;28;20211;-46
2022/10/25 05:51:27;;;;;;;74.20;42.20;;;;;;;;;;4957356;29;20208;-47
2022/10/25 05:54:10;;;;;;;68.65;39.35;;;;;;;;;;4958576;28;20293;-47
2022/10/25 05:56:39;;;;;;;64.03;38.22;;;;;;;;;;4957189;29;20636;-46
2022/10/25 05:59:13;;;;;;;69.55;39.70;;;;;;;;;;4958355;29;20223;-47
2022/10/25 06:01:43;;;;;;;74.90;41.20;;;;;;;;;;4958127;29;20203;-47
2022/10/25 06:04:10;;;;;;;76.35;40.88;;;;;;;;;;4957922;28;20261;-47
2022/10/25 06:06:39;;;;;;;85.18;48.10;;;;;;;;;;4957921;28;20535;-47
2022/10/25 06:09:06;;;;;;;104.75;58.78;;;;;;;;;;4958065;29;20207;-47
2022/10/25 06:11:33;;;;;;;86.88;47.85;;;;;;;;;;4957667;29;20658;-47
2022/10/25 06:14:00;;;;;;;82.55;45.53;;;;;;;;;;4958266;28;20219;-47
2022/10/25 06:16:28;;;;;;;71.38;40.42;;;;;;;;;;4957036;28;20207;-47
2022/10/25 06:18:54;;;;;;;73.82;40.13;;;;;;;;;;4957488;29;20663;-47
2022/10/25 06:21:24;;;;;;;69.93;38.45;;;;;;;;;;4957559;28;20218;-48
2022/10/25 06:23:51;;;;;;;75.40;39.85;;;;;;;;;;4957583;29;20211;-47
2022/10/25 06:26:23;;;;;;;70.35;40.22;;;;;;;;;;4957815;29;20270;-47
2022/10/25 06:28:53;;;;;;;68.90;41.45;;;;;;;;;;4957668;28;20242;-48
2022/10/25 06:31:20;;;;;;;76.78;42.53;;;;;;;;;;4957678;29;20203;-47
2022/10/25 06:33:47;;;;;;;71.32;39.83;;;;;;;;;;4957584;29;20242;-47
2022/10/25 06:36:16;;;;;;;73.43;41.45;;;;;;;;;;4957618;29;20207;-47
2022/10/25 06:38:44;;;;;;;73.50;39.20;;;;;;;;;;4956561;29;20231;-47
2022/10/25 06:41:16;;;;;;;68.30;40.40;;;;;;;;;;4956769;29;20218;-48
2022/10/25 06:43:43;;;;;;;70.97;41.72;;;;;;;;;;4957559;28;20192;-46
2022/10/25 06:46:28;;;;;;;77.20;41.25;;;;;;;;;;4957491;28;20208;-49
2022/10/25 06:48:56;;;;;;;67.32;40.13;;;;;;;;;;4957313;28;20203;-47
2022/10/25 06:51:25;;;;;;;67.20;40.88;;;;;;;;;;4956718;29;20213;-48
2022/10/25 06:53:53;;;;;;;74.90;42.95;;;;;;;;;;4956531;29;20295;-48
2022/10/25 06:56:21;;;;;;;68.57;39.85;;;;;;;;;;4957313;28;20207;-48
2022/10/25 06:58:48;;;;;;;68.03;39.88;;;;;;;;;;4957188;29;20231;-49
2022/10/25 07:01:16;;;;;;;68.13;41.28;;;;;;;;;;4957291;28;20199;-47
2022/10/25 07:03:45;;;;;;;66.50;38.30;;;;;;;;;;4956648;29;20227;-47
2022/10/25 07:06:13;;;;;;;69.90;40.10;;;;;;;;;;4957268;28;20211;-47
2022/10/25 07:08:42;;;;;;;65.10;38.17;;;;;;;;;;4956776;28;20615;-48
2022/10/25 07:11:17;;;;;;;62.75;38.08;;;;;;;;;;4957305;29;20219;-48
2022/10/25 07:13:44;;;;;;;69.93;39.78;;;;;;;;;;4957067;29;20298;-47
2022/10/25 07:16:16;;;;;;;67.35;40.00;;;;;;;;;;4956823;29;20540;-47
2022/10/25 07:18:43;;;;;;;65.18;39.03;;;;;;;;;;4956854;29;20242;-47
2022/10/25 07:21:14;;;;;;;70.97;41.90;;;;;;;;;;4956871;29;20212;-47
2022/10/25 07:23:41;;;;;;;68.28;39.03;;;;;;;;;;4956938;28;20203;-48
2022/10/25 07:26:13;;;;;;;62.88;38.85;;;;;;;;;;4955990;29;20218;-47
2022/10/25 07:28:42;;;;;;;67.80;40.05;;;;;;;;;;4956815;28;20298;-47
2022/10/25 07:31:17;;;;;;;65.35;41.03;;;;;;;;;;4957049;29;20211;-47
2022/10/25 07:33:44;;;;;;;72.07;42.22;;;;;;;;;;4956783;28;20198;-46
2022/10/25 07:36:11;;;;;;;69.40;41.78;;;;;;;;;;4957448;29;20199;-47
2022/10/25 07:38:38;;;;;;;69.70;41.65;;;;;;;;;;4956691;29;20254;-47
2022/10/25 07:41:06;;;;;;;71.90;43.70;;;;;;;;;;4957115;29;20222;-47
2022/10/25 07:43:34;;;;;;;81.10;47.25;;;;;;;;;;4956803;28;20203;-47
2022/10/25 07:46:02;;;;;;;84.28;49.42;;;;;;;;;;4956394;29;20218;-47
2022/10/25 07:48:28;;;;;;;82.57;50.42;;;;;;;;;;4955759;29;20207;-47
2022/10/25 07:50:56;;;;;;;78.60;49.90;;;;;;;;;;4956667;28;20200;-47
2022/10/25 07:53:23;;;;;;;84.38;52.75;;;;;;;;;;4956377;29;20199;-47
2022/10/25 07:55:51;;;;;;;83.20;53.60;;;;;;;;;;4956666;28;20199;-48
2022/10/25 07:58:18;;;;;;;80.03;50.15;;;;;;;;;;4956206;29;20714;-47
2022/10/25 08:00:45;;;;;;;76.43;48.90;;;;;;;;;;4956465;28;20540;-47
2022/10/25 08:03:14;;;;;;;68.35;45.08;;;;;;;;;;4956541;28;20226;-47
2022/10/25 08:05:45;;;;;;;70.80;45.45;;;;;;;;;;4956481;28;20284;-47
2022/10/25 08:08:13;;;;;;;71.18;45.65;;;;;;;;;;4956364;28;20203;-47
2022/10/25 08:10:41;;;;;;;66.45;43.33;;;;;;;;;;4956153;28;20200;-47
2022/10/25 08:13:08;;;;;;;68.57;42.58;;;;;;;;;;4956295;29;20591;-47
2022/10/25 08:15:35;;;;;;;62.97;42.35;;;;;;;;;;4956462;28;20210;-47
2022/10/25 08:18:03;;;;;;;62.00;41.03;;;;;;;;;;4956116;28;20662;-50
2022/10/25 08:20:30;;;;;;;64.10;40.22;;;;;;;;;;4956361;28;20235;-47
2022/10/25 08:23:17;;;;;;;56.22;38.20;;;;;;;;;;4955465;29;20234;-47
2022/10/25 08:25:44;;;;;;;55.28;37.42;;;;;;;;;;4954761;29;20211;-47
2022/10/25 08:28:12;;;;;;;61.22;38.95;;;;;;;;;;4956630;28;20214;-47
2022/10/25 08:30:40;;;;;;;55.42;38.78;;;;;;;;;;4956699;28;20216;-48
2022/10/25 08:33:07;;;;;;;53.25;37.55;;;;;;;;;;4956118;28;20275;-47
2022/10/25 08:35:38;;;;;;;57.97;38.35;;;;;;;;;;4956523;28;20203;-47
2022/10/25 08:38:05;;;;;;;53.95;35.72;;;;;;;;;;4956777;28;20588;-47
2022/10/25 08:41:00;;;;;;;51.85;35.00;;;;;;;;;;4958742;29;20215;-47
2022/10/25 08:44:04;;;;;;;47.78;34.15;;;;;;;;;;4959814;28;20196;-48
2022/10/25 08:46:53;;;;;;;48.85;34.97;;;;;;;;;;4959718;28;20199;-48
2022/10/25 08:49:53;;;;;;;50.97;34.65;;;;;;;;;;4959753;28;20517;-50
2022/10/25 08:52:25;;;;;;;48.38;32.60;;;;;;;;;;4958616;29;20262;-47
2022/10/25 08:54:52;;;;;;;43.03;31.95;;;;;;;;;;4959527;28;20207;-47
2022/10/25 08:57:24;;;;;;;42.90;29.77;;;;;;;;;;4958651;29;20210;-47
2022/10/25 08:59:58;;;;;;;44.33;29.83;;;;;;;;;;4958338;29;20233;-48
2022/10/25 09:02:39;;;;;;;44.92;30.05;;;;;;;;;;4958267;29;20638;-49
2022/10/25 09:05:43;;;;;;;42.03;28.52;;;;;;;;;;4958495;29;20246;-48
2022/10/25 09:08:44;;;;;;;38.05;27.55;;;;;;;;;;4959105;28;20656;-48
2022/10/25 09:11:32;;;;;;;38.38;27.35;;;;;;;;;;4959268;28;20314;-48
2022/10/25 09:14:02;;;;;;;43.13;26.98;;;;;;;;;;4959016;28;20183;-48
2022/10/25 09:17:10;;;;;;;40.22;27.20;;;;;;;;;;4959108;28;20211;-47
2022/10/25 09:19:43;;;;;;;37.58;27.17;;;;;;;;;;4938073;29;20224;-47
2022/10/25 09:22:34;;;;;;;38.80;27.20;;;;;;;;;;4938006;29;20311;-47
2022/10/25 09:25:05;;;;;;;37.08;26.33;;;;;;;;;;4938035;29;20283;-48
2022/10/25 09:27:34;;;;;;;36.22;26.42;;;;;;;;;;4938331;29;20245;-48
2022/10/25 09:30:07;;;;;;;35.58;24.55;;;;;;;;;;4922437;29;20579;-47
2022/10/25 09:32:47;;;;;;;33.97;24.08;;;;;;;;;;4938019;29;20284;-48
2022/10/25 09:35:20;;;;;;;34.97;24.45;;;;;;;;;;4922232;29;20295;-48
2022/10/25 09:38:12;;;;;;;35.97;22.55;;;;;;;;;;4937883;29;20204;-48
2022/10/25 09:40:44;;;;;;;32.30;22.25;;;;;;;;;;4935451;29;20683;-47
2022/10/25 09:43:17;;;;;;;28.92;21.42;;;;;;;;;;4922433;29;20223;-47
2022/10/25 09:46:00;;;;;;;28.60;20.08;;;;;;;;;;4922245;29;20196;-48
2022/10/25 09:48:48;;;;;;;25.52;18.65;;;;;;;;;;4937682;29;20204;-49
2022/10/25 09:51:24;;;;;;;30.33;19.33;;;;;;;;;;4954951;29;20207;-47
2022/10/25 09:53:52;;;;;;;28.15;19.45;;;;;;;;;;4958243;29;20195;-47
2022/10/25 09:56:19;;;;;;;27.38;19.50;;;;;;;;;;4958417;28;20211;-48
2022/10/25 09:58:46;;;;;;;29.58;20.33;;;;;;;;;;4958011;29;20210;-47
2022/10/25 10:01:25;;;;;;;29.42;20.33;;;;;;;;;;4958296;28;20575;-47
2022/10/25 10:03:59;;;;;;;28.77;21.42;;;;;;;;;;4957743;28;20270;-48
2022/10/25 10:06:36;;;;;;;27.83;20.88;;;;;;;;;;4957437;29;20175;-49
2022/10/25 10:09:06;;;;;;;28.95;21.05;;;;;;;;;;4956848;28;20198;-49
2022/10/25 10:11:34;;;;;;;30.67;23.45;;;;;;;;;;4957313;29;20198;-49
2022/10/25 10:14:28;;;;;;;37.35;22.88;;;;;;;;;;4957963;28;20247;-48
2022/10/25 10:16:56;;;;;;;34.03;24.52;;;;;;;;;;4939753;28;20207;-48
2022/10/25 10:19:25;;;;;;;33.08;23.85;;;;;;;;;;4957930;28;20227;-48
2022/10/25 10:21:55;;;;;;;35.22;24.50;;;;;;;;;;4957760;28;20192;-48
2022/10/25 10:24:25;;;;;;;29.17;22.27;;;;;;;;;;4957791;29;20207;-48
2022/10/25 10:26:58;;;;;;;36.53;23.73;;;;;;;;;;4941156;29;20215;-48
2022/10/25 10:29:29;;;;;;;31.02;21.40;;;;;;;;;;4957969;28;20211;-48
2022/10/25 10:32:00;;;;;;;32.45;22.95;;;;;;;;;;4958124;28;20278;-48
2022/10/25 10:34:30;;;;;;;34.92;21.60;;;;;;;;;;4956651;29;20203;-50
2022/10/25 10:37:16;;;;;;;30.50;21.70;;;;;;;;;;4956817;29;20285;-48
2022/10/25 10:39:54;;;;;;;29.40;20.25;;;;;;;;;;4957272;29;20258;-49
2022/10/25 10:42:32;;;;;;;30.92;20.50;;;;;;;;;;4957846;28;20191;-48
2022/10/25 10:45:10;;;;;;;31.08;20.80;;;;;;;;;;4957708;28;20203;-47
2022/10/25 10:47:49;;;;;;;31.50;21.33;;;;;;;;;;4957343;29;20211;-49
2022/10/25 10:50:23;;;;;;;27.50;19.17;;;;;;;;;;4957201;28;20583;-47
2022/10/25 10:52:53;;;;;;;27.55;19.02;;;;;;;;;;4957532;28;20196;-48
2022/10/25 10:55:34;;;;;;;29.60;19.15;;;;;;;;;;4957107;28;20202;-51
2022/10/25 10:58:06;;;;;;;25.25;18.98;;;;;;;;;;4956233;29;20506;-47
2022/10/25 11:00:33;;;;;;;26.55;19.50;;;;;;;;;;4957111;28;20223;-48
2022/10/25 11:03:00;;;;;;;28.17;19.33;;;;;;;;;;4956957;29;20199;-48
2022/10/25 11:05:30;;;;;;;28.38;18.90;;;;;;;;;;4956960;29;20291;-48
2022/10/25 11:08:16;;;;;;;26.17;18.90;;;;;;;;;;4957215;28;20262;-48
2022/10/25 11:10:43;;;;;;;23.25;17.88;;;;;;;;;;4957118;28;20207;-48
2022/10/25 11:13:15;;;;;;;25.60;16.02;;;;;;;;;;4956378;29;20258;-47
2022/10/25 11:16:07;;;;;;;23.73;16.33;;;;;;;;;;4956636;29;20218;-48
2022/10/25 11:18:58;;;;;;;22.23;16.52;;;;;;;;;;4956853;28;20207;-48
2022/10/25 11:21:35;;;;;;;26.10;18.15;;;;;;;;;;4955800;29;20356;-48
2022/10/25 11:24:48;;;;;;;25.65;17.13;;;;;;;;;;4956947;28;20281;-49
2022/10/25 11:27:15;;;;;;;26.73;16.95;;;;;;;;;;4938565;29;20203;-47
2022/10/25 11:29:55;;;;;;;24.00;17.45;;;;;;;;;;4955797;29;20223;-48
2022/10/25 11:32:54;;;;;;;23.58;17.55;;;;;;;;;;4956864;28;20199;-48
2022/10/25 11:35:43;;;;;;;26.05;16.92;;;;;;;;;;4935139;29;20290;-48
2022/10/25 11:38:14;;;;;;;27.67;16.77;;;;;;;;;;4955730;29;20631;-48
2022/10/25 11:40:54;;;;;;;28.42;18.40;;;;;;;;;;4955162;29;20682;-49
2022/10/25 11:44:15;;;;;;;24.90;18.70;;;;;;;;;;4956444;28;20623;-48
2022/10/25 11:46:48;;;;;;;27.67;19.02;;;;;;;;;;4910946;29;20241;-47
2022/10/25 11:49:37;;;;;;;25.55;19.17;;;;;;;;;;4954332;29;20207;-49
2022/10/25 11:52:14;;;;;;;30.23;19.60;;;;;;;;;;4948606;29;20637;-51
2022/10/25 11:55:16;;;;;;;27.50;18.90;;;;;;;;;;4937429;29;20203;-48
2022/10/25 11:58:11;;;;;;;26.40;18.17;;;;;;;;;;4938355;29;20266;-48
2022/10/25 12:00:55;;;;;;;23.48;17.25;;;;;;;;;;4955926;29;20226;-48
2022/10/25 12:03:40;;;;;;;22.75;17.05;;;;;;;;;;4955420;29;20257;-47
2022/10/25 12:06:07;;;;;;;23.83;16.30;;;;;;;;;;4956588;28;20539;-48
2022/10/25 12:09:06;;;;;;;21.42;15.88;;;;;;;;;;4955149;28;20215;-47
2022/10/25 12:11:40;;;;;;;24.08;15.38;;;;;;;;;;4955579;29;20192;-49
2022/10/25 12:14:11;;;;;;;17.52;13.75;;;;;;;;;;4958420;28;20207;-47
2022/10/25 12:16:39;;;;;;;23.33;13.60;;;;;;;;;;4958774;29;20619;-47
2022/10/25 12:19:23;;;;;;;20.13;13.27;;;;;;;;;;4958820;29;20520;-48
2022/10/25 12:22:04;;;;;;;21.02;13.63;;;;;;;;;;4958686;29;20205;-48
2022/10/25 12:24:50;;;;;;;15.38;12.63;;;;;;;;;;4959808;29;20202;-48
2022/10/25 12:27:18;;;;;;;16.85;13.77;;;;;;;;;;4959235;29;20279;-49
2022/10/25 12:29:50;;;;;;;21.38;13.75;;;;;;;;;;4958476;29;20276;-49
2022/10/25 12:32:24;;;;;;;15.70;13.00;;;;;;;;;;4958539;29;20204;-49
2022/10/25 12:34:53;;;;;;;18.95;13.35;;;;;;;;;;4959138;29;20202;-49
2022/10/25 12:37:35;;;;;;;17.08;13.20;;;;;;;;;;4958922;29;20606;-49
2022/10/25 12:40:04;;;;;;;17.63;12.88;;;;;;;;;;4958271;29;20227;-52
2022/10/25 12:42:44;;;;;;;17.65;12.60;;;;;;;;;;4958064;29;20211;-51
2022/10/25 12:45:24;;;;;;;22.88;13.40;;;;;;;;;;4959442;28;20192;-49
2022/10/25 12:48:03;;;;;;;16.48;13.20;;;;;;;;;;4959016;29;20195;-49
2022/10/25 12:50:33;;;;;;;17.30;13.18;;;;;;;;;;4959115;28;20187;-51
2022/10/25 12:53:16;;;;;;;19.30;13.95;;;;;;;;;;4958822;28;20225;-48
2022/10/25 12:55:43;;;;;;;18.63;12.98;;;;;;;;;;4958586;29;20195;-49
2022/10/25 12:58:44;;;;;;;18.38;12.93;;;;;;;;;;4959208;28;20218;-47
2022/10/25 13:01:56;;;;;;;17.27;12.25;;;;;;;;;;4957719;29;20231;-48
2022/10/25 13:04:54;;;;;;;20.02;11.05;;;;;;;;;;4920915;29;20232;-48
2022/10/25 13:07:22;;;;;;;15.70;11.50;;;;;;;;;;4956751;29;20218;-47
2022/10/25 13:09:49;;;;;;;22.02;13.13;;;;;;;;;;4955735;29;20214;-47
2022/10/25 13:12:34;;;;;;;17.70;11.93;;;;;;;;;;4957074;29;20207;-46
2022/10/25 13:15:02;;;;;;;15.60;10.50;;;;;;;;;;4958529;29;20218;-44
2022/10/25 13:17:43;;;;;;;17.63;11.00;;;;;;;;;;4949988;28;20239;-45
2022/10/25 13:20:21;;;;;;;20.45;10.95;;;;;;;;;;4956459;29;20223;-46
2022/10/25 13:22:48;;;;;;;15.07;11.07;;;;;;;;;;4956756;28;20246;-47
2022/10/25 13:25:31;;;;;;;15.32;11.27;;;;;;;;;;4957719;28;20368;-46
2022/10/25 13:28:10;;;;;;;14.65;11.98;;;;;;;;;;4957080;28;20242;-46
2022/10/25 13:30:36;;;;;;;18.05;10.75;;;;;;;;;;4958084;28;20250;-46
2022/10/25 13:33:23;;;;;;;16.88;10.98;;;;;;;;;;4957033;28;20227;-47
2022/10/25 13:35:50;;;;;;;16.02;11.48;;;;;;;;;;4957750;29;20255;-48
2022/10/25 13:38:23;;;;;;;16.85;11.10;;;;;;;;;;4956913;28;20607;-46
2022/10/25 13:41:15;;;;;;;17.08;12.10;;;;;;;;;;4956902;28;20614;-47
2022/10/25 13:44:16;;;;;;;16.73;11.50;;;;;;;;;;4956496;28;20631;-47
2022/10/25 13:46:43;;;;;;;17.27;11.65;;;;;;;;;;4970822;28;20238;-47
2022/10/25 13:49:25;;;;;;;20.83;12.70;;;;;;;;;;4972661;28;20603;-47
2022/10/25 13:51:56;;;;;;;14.98;11.95;;;;;;;;;;4974071;28;20561;-47
2022/10/25 13:54:28;;;;;;;17.83;11.80;;;;;;;;;;4976275;28;20247;-47
2022/10/25 13:56:55;;;;;;;18.27;12.13;;;;;;;;;;4976058;28;20226;-48
2022/10/25 13:59:36;;;;;;;16.88;10.35;;;;;;;;;;4975875;28;21692;-49
2022/10/25 14:02:14;;;;;;;23.75;17.25;;;;;;;;;;4953593;29;20231;-47
2022/10/25 14:04:41;;;;;;;17.48;12.57;;;;;;;;;;4957195;28;20242;-48
2022/10/25 14:07:45;;;;;;;16.95;13.07;;;;;;;;;;4957239;28;20538;-48
2022/10/25 14:10:18;;;;;;;22.45;12.07;;;;;;;;;;4935272;29;20570;-47
2022/10/25 14:12:52;;;;;;;25.48;13.40;;;;;;;;;;4936063;29;20235;-46
2022/10/25 14:15:32;;;;;;;14.35;11.18;;;;;;;;;;4935459;29;20588;-47
2022/10/25 14:18:05;;;;;;;21.65;11.55;;;;;;;;;;4920359;29;20224;-48
2022/10/25 14:20:33;;;;;;;18.08;12.00;;;;;;;;;;4934580;29;20244;-48
2022/10/25 14:23:06;;;;;;;20.23;10.93;;;;;;;;;;4920198;29;20610;-48
2022/10/25 14:25:38;;;;;;;25.90;14.38;;;;;;;;;;4935750;29;20223;-46
2022/10/25 14:28:09;;;;;;;23.65;13.57;;;;;;;;;;4939002;29;20379;-46
2022/10/25 14:30:43;;;;;;;27.48;13.27;;;;;;;;;;4948763;29;20231;-47
2022/10/25 14:33:25;;;;;;;23.15;14.25;;;;;;;;;;4931043;29;20557;-48
2022/10/25 14:36:03;;;;;;;29.65;15.00;;;;;;;;;;4941146;28;20263;-46
2022/10/25 14:38:31;;;;;;;28.35;15.18;;;;;;;;;;4951223;29;20238;-48
2022/10/25 14:41:01;;;;;;;33.03;16.42;;;;;;;;;;4948746;29;20231;-46
2022/10/25 14:43:33;;;;;;;27.13;14.90;;;;;;;;;;4944795;28;20219;-47
2022/10/25 14:46:12;;;;;;;28.63;16.77;;;;;;;;;;4971128;28;20226;-46
2022/10/25 14:48:41;;;;;;;34.88;18.98;;;;;;;;;;4942079;28;20268;-48
2022/10/25 14:51:18;;;;;;;37.53;22.30;;;;;;;;;;4974278;28;20246;-48